createdAt,value
2023-03-10T00:01:12.053Z,61.00
2023-03-10T00:03:42.000Z,61.93
2023-03-10T00:06:12.795Z,61.60
2023-03-10T00:08:42.034Z,60.60
2023-03-10T00:11:10.872Z,62.23
2023-03-10T00:13:39.451Z,59.50
2023-03-10T00:16:08.784Z,62.23
2023-03-10T00:18:37.036Z,62.20
2023-03-10T00:21:07.217Z,63.60
2023-03-10T00:23:37.422Z,66.17
2023-03-10T00:26:06.252Z,64.53
2023-03-10T00:28:34.605Z,67.47
2023-03-10T00:31:05.989Z,65.13
2023-03-10T00:33:35.972Z,69.30
2023-03-10T00:36:08.279Z,70.87
2023-03-10T00:38:37.528Z,71.47
2023-03-10T00:41:07.650Z,73.37
2023-03-10T00:43:36.706Z,77.27
2023-03-10T00:46:05.679Z,75.77
2023-03-10T00:48:34.316Z,78.67
2023-03-10T00:51:04.433Z,75.47
2023-03-10T00:53:36.092Z,74.63
2023-03-10T00:56:08.018Z,74.70
2023-03-10T00:58:36.578Z,77.17
2023-03-10T01:01:07.063Z,76.50
2023-03-10T01:03:35.321Z,77.20
2023-03-10T01:06:03.545Z,81.93
2023-03-10T01:08:33.162Z,77.93
2023-03-10T01:11:01.506Z,78.23
2023-03-10T01:13:29.964Z,80.57
2023-03-10T01:15:58.328Z,78.83
2023-03-10T01:18:27.043Z,82.40
2023-03-10T01:20:55.315Z,80.30
2023-03-10T01:23:25.620Z,80.37
2023-03-10T01:25:55.366Z,81.67
2023-03-10T01:28:24.069Z,83.77
2023-03-10T01:30:52.345Z,78.50
2023-03-10T01:33:20.581Z,80.27
2023-03-10T01:35:48.739Z,79.53
2023-03-10T01:38:16.966Z,81.03
2023-03-10T01:40:50.245Z,78.57
2023-03-10T01:43:31.114Z,78.20
2023-03-10T01:46:44.169Z,80.70
2023-03-10T01:49:39.956Z,81.47
2023-03-10T01:52:13.443Z,81.37
2023-03-10T01:54:49.900Z,79.70
2023-03-10T01:57:24.827Z,80.90
2023-03-10T01:59:56.993Z,84.87
2023-03-10T02:02:27.011Z,86.40
2023-03-10T02:04:56.722Z,78.20
2023-03-10T02:07:28.309Z,76.60
2023-03-10T02:09:57.787Z,79.73
2023-03-10T02:12:26.362Z,85.27
2023-03-10T02:14:56.368Z,87.33
2023-03-10T02:17:27.710Z,82.70
2023-03-10T02:20:21.553Z,79.27
2023-03-10T02:22:50.084Z,79.63
2023-03-10T02:25:34.631Z,84.17
2023-03-10T02:28:05.680Z,79.13
2023-03-10T02:30:38.759Z,77.90
2023-03-10T02:33:10.876Z,77.67
2023-03-10T02:35:39.511Z,74.57
2023-03-10T02:38:12.400Z,75.57
2023-03-10T02:40:44.920Z,73.83
2023-03-10T02:43:23.607Z,72.17
2023-03-10T02:46:00.187Z,65.30
2023-03-10T02:48:32.638Z,64.87
2023-03-10T02:51:04.520Z,63.80
2023-03-10T02:53:32.961Z,60.60
2023-03-10T02:56:01.370Z,59.70
2023-03-10T02:58:34.184Z,55.47
2023-03-10T03:01:05.112Z,54.53
2023-03-10T03:03:36.938Z,52.07
2023-03-10T03:06:06.228Z,49.33
2023-03-10T03:08:34.961Z,49.17
2023-03-10T03:11:06.372Z,45.50
2023-03-10T03:13:36.427Z,42.63
2023-03-10T03:16:07.415Z,41.33
2023-03-10T03:18:36.615Z,39.23
2023-03-10T03:21:06.437Z,41.40
2023-03-10T03:23:35.081Z,43.63
2023-03-10T03:26:03.697Z,38.87
2023-03-10T03:28:32.723Z,38.50
2023-03-10T03:31:03.154Z,36.40
2023-03-10T03:33:32.420Z,35.60
2023-03-10T03:36:00.962Z,33.30
2023-03-10T03:38:29.873Z,33.27
2023-03-10T03:40:58.159Z,33.83
2023-03-10T03:43:27.703Z,34.20
2023-03-10T03:45:56.437Z,32.67
2023-03-10T03:48:26.523Z,30.80
2023-03-10T03:50:55.240Z,34.00
2023-03-10T03:53:29.925Z,33.93
2023-03-10T03:55:58.496Z,31.20
2023-03-10T03:58:28.989Z,31.03
2023-03-10T04:00:57.778Z,30.60
2023-03-10T04:03:29.244Z,29.13
2023-03-10T04:05:58.055Z,29.17
2023-03-10T04:08:26.825Z,27.30
2023-03-10T04:10:56.620Z,27.70
2023-03-10T04:13:27.652Z,24.93
2023-03-10T04:15:57.742Z,24.40
2023-03-10T04:18:29.172Z,22.60
2023-03-10T04:20:58.056Z,22.63
2023-03-10T04:23:26.605Z,20.97
2023-03-10T04:25:54.987Z,20.20
2023-03-10T04:28:23.143Z,19.70
2023-03-10T04:30:52.225Z,19.33
2023-03-10T04:33:23.898Z,18.63
2023-03-10T04:35:53.716Z,17.77
2023-03-10T04:38:24.152Z,17.17
2023-03-10T04:40:58.739Z,17.17
2023-03-10T04:43:31.323Z,16.53
2023-03-10T04:46:00.107Z,16.43
2023-03-10T04:48:29.248Z,15.77
2023-03-10T04:51:00.153Z,15.70
2023-03-10T04:53:32.621Z,14.67
2023-03-10T04:56:02.946Z,14.57
2023-03-10T04:58:35.932Z,14.50
2023-03-10T05:01:10.088Z,14.37
2023-03-10T05:03:42.184Z,14.90
2023-03-10T05:06:17.438Z,14.53
2023-03-10T05:08:50.335Z,14.33
2023-03-10T05:11:21.126Z,14.33
2023-03-10T05:13:49.326Z,15.07
2023-03-10T05:16:20.833Z,14.80
2023-03-10T05:18:50.445Z,17.43
2023-03-10T05:21:24.469Z,15.97
2023-03-10T05:23:55.245Z,17.40
2023-03-10T05:26:25.286Z,16.03
2023-03-10T05:28:53.532Z,19.37
2023-03-10T05:31:29.563Z,20.10
2023-03-10T05:34:04.137Z,19.67
2023-03-10T05:36:33.821Z,20.60
2023-03-10T05:39:05.987Z,22.90
2023-03-10T05:41:37.868Z,24.17
2023-03-10T05:44:07.079Z,25.97
2023-03-10T05:46:36.964Z,23.70
2023-03-10T05:49:05.348Z,27.67
2023-03-10T05:51:35.092Z,24.57
2023-03-10T05:54:06.397Z,23.70
2023-03-10T05:56:34.906Z,21.40
2023-03-10T05:59:04.624Z,21.47
2023-03-10T06:01:35.828Z,18.90
2023-03-10T06:04:04.197Z,21.20
2023-03-10T06:06:32.400Z,19.57
2023-03-10T06:09:02.231Z,21.20
2023-03-10T06:11:30.561Z,19.87
2023-03-10T06:13:58.666Z,21.60
2023-03-10T06:16:27.270Z,19.60
2023-03-10T06:18:56.214Z,21.70
2023-03-10T06:21:25.362Z,20.27
2023-03-10T06:23:53.508Z,17.67
2023-03-10T06:26:24.500Z,18.30
2023-03-10T06:28:52.719Z,17.97
2023-03-10T06:31:23.253Z,18.60
2023-03-10T06:33:52.302Z,16.70
2023-03-10T06:36:21.214Z,16.73
2023-03-10T06:38:49.701Z,16.50
2023-03-10T06:41:18.190Z,14.63
2023-03-10T06:43:48.283Z,13.10
2023-03-10T06:46:17.565Z,13.90
2023-03-10T06:48:45.741Z,13.03
2023-03-10T06:51:17.580Z,11.93
2023-03-10T06:53:46.332Z,12.43
2023-03-10T06:56:16.917Z,11.17
2023-03-10T06:58:47.393Z,10.40
2023-03-10T07:01:24.217Z,10.90
2023-03-10T07:03:52.631Z,10.50
2023-03-10T07:06:20.917Z,10.13
2023-03-10T07:08:49.892Z,9.10
2023-03-10T07:11:18.663Z,7.90
2023-03-10T07:13:48.800Z,8.33
2023-03-10T07:16:17.324Z,6.63
2023-03-10T07:18:45.657Z,6.27
2023-03-10T07:21:17.172Z,6.20
2023-03-10T07:23:45.365Z,6.13
2023-03-10T07:26:15.709Z,6.47
2023-03-10T07:28:43.787Z,5.47
2023-03-10T07:31:15.065Z,5.37
2023-03-10T07:33:43.506Z,5.47
2023-03-10T07:36:13.804Z,4.73
2023-03-10T07:38:42.001Z,5.33
2023-03-10T07:41:11.310Z,4.90
2023-03-10T07:43:39.558Z,4.93
2023-03-10T07:46:08.706Z,5.10
2023-03-10T07:48:38.620Z,4.63
2023-03-10T07:51:07.633Z,3.93
2023-03-10T07:53:36.858Z,4.87
2023-03-10T07:56:09.183Z,4.00
2023-03-10T07:58:37.940Z,3.90
2023-03-10T08:01:07.095Z,5.63
2023-03-10T08:03:35.940Z,3.50
2023-03-10T08:06:06.384Z,3.10
2023-03-10T08:08:34.809Z,3.00
2023-03-10T08:11:04.722Z,2.70
2023-03-10T08:13:33.401Z,3.30
2023-03-10T08:16:02.628Z,3.23
2023-03-10T08:18:31.969Z,3.50
2023-03-10T08:21:01.149Z,3.33
2023-03-10T08:23:30.580Z,4.07
2023-03-10T08:26:01.746Z,2.80
2023-03-10T08:28:30.744Z,4.27
2023-03-10T08:31:04.692Z,3.73
2023-03-10T08:33:34.047Z,3.90
2023-03-10T08:36:06.979Z,4.07
2023-03-10T08:38:36.832Z,3.17
2023-03-10T08:41:16.731Z,3.95
2023-03-10T08:43:47.185Z,3.22
2023-03-10T08:46:18.067Z,3.08
2023-03-10T08:48:46.341Z,4.67
2023-03-10T08:51:16.351Z,2.50
2023-03-10T08:53:48.187Z,3.00
2023-03-10T08:56:17.977Z,2.22
2023-03-10T08:58:46.531Z,2.30
2023-03-10T09:01:16.084Z,3.65
2023-03-10T09:03:45.807Z,2.33
2023-03-10T09:06:14.832Z,1.75
2023-03-10T09:08:43.211Z,2.10
2023-03-10T09:11:18.471Z,2.00
2023-03-10T09:13:46.890Z,2.67
2023-03-10T09:16:15.600Z,1.85
2023-03-10T09:18:44.374Z,2.03
2023-03-10T09:21:13.504Z,3.50
2023-03-10T09:23:43.459Z,1.70
2023-03-10T09:26:13.110Z,2.50
2023-03-10T09:28:41.440Z,2.08
2023-03-10T09:31:12.871Z,4.30
2023-03-10T09:33:42.525Z,3.33
2023-03-10T09:36:11.089Z,2.95
2023-03-10T09:38:39.421Z,1.92
2023-03-10T09:41:23.711Z,2.10
2023-03-10T09:44:02.343Z,2.17
2023-03-10T09:46:36.576Z,2.28
2023-03-10T09:49:10.840Z,3.35
2023-03-10T09:51:45.601Z,2.35
2023-03-10T09:54:32.025Z,2.42
2023-03-10T09:57:04.392Z,2.10
2023-03-10T09:59:36.842Z,2.10
2023-03-10T10:02:17.355Z,2.03
2023-03-10T10:04:45.862Z,2.20
2023-03-10T10:07:17.345Z,1.90
2023-03-10T10:09:53.278Z,2.80
2023-03-10T10:12:26.724Z,2.10
2023-03-10T10:14:58.929Z,1.88
2023-03-10T10:17:52.288Z,2.65
2023-03-10T10:20:24.026Z,2.88
2023-03-10T10:22:52.340Z,2.13
2023-03-10T10:25:22.309Z,2.20
2023-03-10T10:27:54.160Z,3.10
2023-03-10T10:30:36.830Z,5.05
2023-03-10T10:33:07.127Z,2.25
2023-03-10T10:35:37.324Z,2.20
2023-03-10T10:38:07.975Z,2.17
2023-03-10T10:40:47.207Z,2.25
2023-03-10T10:43:19.661Z,3.53
2023-03-10T10:45:55.265Z,1.90
2023-03-10T10:48:37.673Z,7.78
2023-03-10T10:51:06.501Z,3.15
2023-03-10T10:53:36.151Z,2.55
2023-03-10T10:56:07.000Z,2.63
2023-03-10T10:58:38.480Z,2.13
2023-03-10T11:01:08.391Z,2.15
2023-03-10T11:03:37.976Z,2.17
2023-03-10T11:06:16.133Z,3.55
2023-03-10T11:08:51.009Z,2.35
2023-03-10T11:11:25.339Z,3.22
2023-03-10T11:14:08.458Z,2.10
2023-03-10T11:16:49.531Z,2.15
2023-03-10T11:19:26.563Z,2.45
2023-03-10T11:22:02.253Z,2.15
2023-03-10T11:24:37.452Z,2.33
2023-03-10T11:27:12.221Z,2.55
2023-03-10T11:30:01.254Z,3.30
2023-03-10T11:32:38.159Z,2.50
2023-03-10T11:35:19.968Z,2.75
2023-03-10T11:37:53.118Z,4.70
2023-03-10T11:40:28.431Z,1.75
2023-03-10T11:43:02.491Z,1.98
2023-03-10T11:45:36.451Z,2.20
2023-03-10T11:48:21.280Z,2.75
2023-03-10T11:50:53.491Z,2.30
2023-03-10T11:53:31.721Z,2.05
2023-03-10T11:56:01.763Z,2.60
2023-03-10T11:58:46.830Z,2.78
2023-03-10T12:01:21.032Z,2.90
2023-03-10T12:03:57.082Z,2.97
2023-03-10T12:06:34.084Z,2.75
2023-03-10T12:09:04.074Z,2.60
2023-03-10T12:11:32.561Z,2.45
2023-03-10T12:14:01.994Z,2.85
2023-03-10T12:16:37.634Z,2.50
2023-03-10T12:19:07.123Z,2.65
2023-03-10T12:21:36.087Z,2.58
2023-03-10T12:24:06.288Z,2.78
2023-03-10T12:27:03.438Z,2.47
2023-03-10T12:29:42.777Z,2.60
2023-03-10T12:32:48.333Z,3.97
2023-03-10T12:35:44.335Z,2.40
2023-03-10T12:38:36.579Z,2.58
2023-03-10T12:41:05.209Z,3.58
2023-03-10T12:43:57.588Z,2.58
2023-03-10T12:46:40.478Z,2.97
2023-03-10T12:49:29.453Z,2.60
2023-03-10T12:52:14.154Z,5.60
2023-03-10T12:55:05.113Z,3.03
2023-03-10T12:57:42.150Z,3.30
2023-03-10T13:00:20.590Z,2.50
2023-03-10T13:02:53.802Z,3.65
2023-03-10T13:05:26.544Z,2.58
2023-03-10T13:07:58.244Z,3.45
2023-03-10T13:10:30.340Z,2.85
2023-03-10T13:13:03.438Z,3.65
2023-03-10T13:15:34.011Z,5.53
2023-03-10T13:18:19.032Z,2.47
2023-03-10T13:20:50.030Z,2.92
2023-03-10T13:23:22.996Z,2.50
2023-03-10T13:25:55.875Z,2.40
2023-03-10T13:28:24.427Z,3.47
2023-03-10T13:30:52.726Z,2.47
2023-03-10T13:33:25.869Z,2.28
2023-03-10T13:35:55.781Z,2.95
2023-03-10T13:38:25.395Z,2.60
2023-03-10T13:41:02.208Z,4.07
2023-03-10T13:43:37.282Z,2.67
2023-03-10T13:46:09.809Z,2.30
2023-03-10T13:48:40.969Z,3.53
2023-03-10T13:51:19.199Z,2.55
2023-03-10T13:53:49.953Z,2.83
2023-03-10T13:56:25.027Z,3.10
2023-03-10T13:58:55.673Z,2.95
2023-03-10T14:01:26.340Z,2.75
2023-03-10T14:03:57.135Z,2.90
2023-03-10T14:06:28.108Z,2.85
2023-03-10T14:08:57.062Z,3.28
2023-03-10T14:11:34.288Z,2.60
2023-03-10T14:14:05.384Z,2.67
2023-03-10T14:16:53.889Z,4.43
2023-03-10T14:19:48.464Z,2.70
2023-03-10T14:22:26.666Z,2.40
2023-03-10T14:24:54.745Z,5.05
2023-03-10T14:27:23.427Z,2.63
2023-03-10T14:29:53.462Z,3.53
2023-03-10T14:32:21.933Z,3.72
2023-03-10T14:34:50.698Z,4.70
2023-03-10T14:37:19.267Z,4.63
2023-03-10T14:39:48.704Z,3.22
2023-03-10T14:42:21.831Z,3.55
2023-03-10T14:44:51.276Z,3.00
2023-03-10T14:47:19.573Z,3.88
2023-03-10T14:49:48.139Z,4.40
2023-03-10T14:52:18.262Z,5.82
2023-03-10T14:54:47.423Z,4.40
2023-03-10T14:57:21.578Z,2.85
2023-03-10T14:59:49.902Z,2.90
2023-03-10T15:02:23.282Z,3.33
2023-03-10T15:04:51.565Z,3.10
2023-03-10T15:07:19.749Z,4.53
2023-03-10T15:09:49.571Z,3.63
2023-03-10T15:12:20.975Z,3.05
2023-03-10T15:14:53.703Z,3.10
2023-03-10T15:17:22.619Z,3.40
2023-03-10T15:19:50.966Z,5.60
2023-03-10T15:22:19.298Z,3.25
2023-03-10T15:24:47.338Z,5.28
2023-03-10T15:27:16.257Z,3.53
2023-03-10T15:29:45.722Z,3.97
2023-03-10T15:32:13.868Z,3.42
2023-03-10T15:34:42.102Z,4.03
2023-03-10T15:37:10.287Z,3.40
2023-03-10T15:39:38.442Z,4.55
2023-03-10T15:42:06.667Z,4.40
2023-03-10T15:44:34.935Z,3.45
2023-03-10T15:47:04.412Z,3.75
2023-03-10T15:49:32.971Z,3.80
2023-03-10T15:52:01.095Z,4.43
2023-03-10T15:54:29.259Z,3.67
2023-03-10T15:56:57.345Z,4.30
2023-03-10T15:59:25.645Z,4.15
2023-03-10T16:01:53.938Z,4.45
2023-03-10T16:04:23.985Z,4.70
2023-03-10T16:06:52.281Z,3.50
2023-03-10T16:09:20.310Z,3.47
2023-03-10T16:11:49.119Z,4.25
2023-03-10T16:14:17.211Z,4.75
2023-03-10T16:16:45.279Z,3.25
2023-03-10T16:19:13.430Z,4.45
2023-03-10T16:21:42.853Z,4.55
2023-03-10T16:24:11.439Z,5.65
2023-03-10T16:26:43.967Z,5.00
2023-03-10T16:29:12.852Z,3.92
2023-03-10T16:31:41.060Z,6.80
2023-03-10T16:34:09.441Z,4.88
2023-03-10T16:36:37.524Z,4.53
2023-03-10T16:39:12.669Z,5.63
2023-03-10T16:41:40.892Z,5.20
2023-03-10T16:44:12.448Z,4.40
2023-03-10T16:46:40.849Z,4.00
2023-03-10T16:49:15.653Z,6.45
2023-03-10T16:51:45.352Z,6.13
2023-03-10T16:54:16.952Z,7.22
2023-03-10T16:56:47.673Z,5.35
2023-03-10T16:59:18.437Z,6.22
2023-03-10T17:01:47.018Z,5.35
2023-03-10T17:04:15.373Z,4.75
2023-03-10T17:06:44.069Z,4.93
2023-03-10T17:09:13.496Z,6.95
2023-03-10T17:11:46.442Z,4.50
2023-03-10T17:14:16.624Z,4.97
2023-03-10T17:16:45.897Z,6.40
2023-03-10T17:19:16.902Z,8.60
2023-03-10T17:21:47.047Z,5.22
2023-03-10T17:24:17.066Z,4.53
2023-03-10T17:26:47.097Z,5.20
2023-03-10T17:29:15.787Z,5.85
2023-03-10T17:31:49.066Z,5.68
2023-03-10T17:34:17.366Z,5.20
2023-03-10T17:36:46.994Z,6.25
2023-03-10T17:39:19.746Z,4.40
2023-03-10T17:41:49.743Z,4.60
2023-03-10T17:44:18.665Z,4.03
2023-03-10T17:46:46.749Z,4.00
2023-03-10T17:49:16.477Z,3.90
2023-03-10T17:51:46.387Z,3.47
2023-03-10T17:54:16.772Z,3.60
2023-03-10T17:56:44.991Z,3.20
2023-03-10T17:59:15.061Z,3.80
2023-03-10T18:01:45.029Z,3.50
2023-03-10T18:04:13.900Z,4.17
2023-03-10T18:06:42.608Z,4.83
2023-03-10T18:09:13.875Z,4.90
2023-03-10T18:11:42.663Z,5.10
2023-03-10T18:14:10.932Z,4.87
2023-03-10T18:16:41.299Z,4.87
2023-03-10T18:19:11.114Z,5.13
2023-03-10T18:21:39.716Z,5.43
2023-03-10T18:24:08.820Z,6.00
2023-03-10T18:26:38.100Z,6.17
2023-03-10T18:29:06.198Z,7.10
2023-03-10T18:31:35.629Z,7.40
2023-03-10T18:34:05.878Z,8.40
2023-03-10T18:36:34.415Z,9.47
2023-03-10T18:39:04.018Z,9.50
2023-03-10T18:41:32.882Z,10.53
2023-03-10T18:44:01.202Z,11.83
2023-03-10T18:46:29.789Z,12.93
2023-03-10T18:48:57.905Z,12.93
2023-03-10T18:51:28.756Z,14.73
2023-03-10T18:53:57.580Z,14.97
2023-03-10T18:56:29.054Z,14.87
2023-03-10T18:58:57.311Z,15.50
2023-03-10T19:01:25.738Z,15.37
2023-03-10T19:03:53.889Z,14.83
2023-03-10T19:06:23.886Z,15.70
2023-03-10T19:08:53.922Z,15.37
2023-03-10T19:11:24.309Z,15.00
2023-03-10T19:13:52.878Z,14.60
2023-03-10T19:16:21.354Z,15.03
2023-03-10T19:18:49.747Z,15.37
2023-03-10T19:21:17.812Z,15.37
2023-03-10T19:23:46.052Z,15.60
2023-03-10T19:26:15.569Z,15.23
2023-03-10T19:28:44.487Z,16.47
2023-03-10T19:31:13.935Z,16.23
2023-03-10T19:33:42.544Z,15.33
2023-03-10T19:36:13.253Z,16.33
2023-03-10T19:38:42.851Z,15.73
2023-03-10T19:41:17.429Z,16.77
2023-03-10T19:43:47.252Z,16.90
2023-03-10T19:46:16.358Z,16.70
2023-03-10T19:48:45.562Z,16.97
2023-03-10T19:51:21.419Z,16.37
2023-03-10T19:53:49.629Z,15.83
2023-03-10T19:56:19.932Z,15.53
2023-03-10T19:58:49.408Z,15.07
2023-03-10T20:01:19.896Z,14.70
2023-03-10T20:03:48.307Z,14.83
2023-03-10T20:06:16.434Z,14.17
2023-03-10T20:08:44.550Z,13.40
2023-03-10T20:11:14.763Z,13.40
2023-03-10T20:13:46.621Z,13.03
2023-03-10T20:16:17.551Z,13.43
2023-03-10T20:18:45.697Z,12.77
2023-03-10T20:21:13.852Z,13.23
2023-03-10T20:23:42.462Z,13.10
2023-03-10T20:26:11.799Z,13.73
2023-03-10T20:28:40.720Z,12.53
2023-03-10T20:31:10.193Z,12.87
2023-03-10T20:33:38.320Z,13.50
2023-03-10T20:36:08.694Z,12.47
2023-03-10T20:38:36.937Z,12.80
2023-03-10T20:41:05.410Z,12.63
2023-03-10T20:43:33.662Z,12.10
2023-03-10T20:46:01.759Z,11.77
2023-03-10T20:48:31.297Z,12.00
2023-03-10T20:51:01.886Z,12.10
2023-03-10T20:53:32.245Z,11.77
2023-03-10T20:56:00.962Z,11.60
2023-03-10T20:58:29.410Z,11.97
2023-03-10T21:00:57.550Z,11.67
2023-03-10T21:03:27.253Z,11.23
2023-03-10T21:05:56.751Z,12.20
2023-03-10T21:08:24.773Z,12.60
2023-03-10T21:10:52.959Z,11.80
2023-03-10T21:13:21.036Z,11.90
2023-03-10T21:15:49.095Z,13.07
2023-03-10T21:18:17.178Z,13.67
2023-03-10T21:20:45.255Z,13.53
2023-03-10T21:23:14.734Z,13.60
2023-03-10T21:25:42.884Z,13.67
2023-03-10T21:28:11.291Z,14.00
2023-03-10T21:30:39.505Z,13.77
2023-03-10T21:33:11.084Z,14.10
2023-03-10T21:35:40.646Z,14.33
2023-03-10T21:38:08.704Z,15.00
2023-03-10T21:40:38.242Z,14.47
2023-03-10T21:43:06.340Z,14.63
2023-03-10T21:45:37.397Z,15.43
2023-03-10T21:48:06.384Z,14.77
2023-03-10T21:50:34.569Z,15.43
2023-03-10T21:53:02.810Z,15.20
2023-03-10T21:55:33.133Z,15.57
2023-03-10T21:58:03.123Z,15.60
2023-03-10T22:00:31.225Z,15.77
2023-03-10T22:02:59.307Z,15.17
2023-03-10T22:05:27.457Z,15.60
2023-03-10T22:07:56.924Z,15.47
2023-03-10T22:10:25.016Z,16.13
2023-03-10T22:12:53.113Z,15.80
2023-03-10T22:15:26.049Z,15.70
2023-03-10T22:17:55.368Z,16.20
2023-03-10T22:20:26.089Z,16.20
2023-03-10T22:22:54.364Z,15.50
2023-03-10T22:25:23.120Z,16.03
2023-03-10T22:27:54.079Z,15.23
2023-03-10T22:30:25.543Z,15.77
2023-03-10T22:32:53.964Z,15.80
2023-03-10T22:35:22.725Z,15.50
2023-03-10T22:37:51.449Z,15.93
2023-03-10T22:40:21.124Z,16.13
2023-03-10T22:42:49.829Z,16.27
2023-03-10T22:45:20.943Z,15.30
2023-03-10T22:47:53.598Z,15.73
2023-03-10T22:50:24.036Z,16.30
2023-03-10T22:52:52.214Z,16.50
2023-03-10T22:55:23.697Z,15.87
2023-03-10T22:57:51.856Z,15.63
2023-03-10T23:00:21.795Z,15.13
2023-03-10T23:02:53.859Z,14.23
2023-03-10T23:05:22.638Z,15.23
2023-03-10T23:07:50.903Z,16.20
2023-03-10T23:10:22.237Z,17.07
2023-03-10T23:12:50.387Z,18.13
2023-03-10T23:15:25.714Z,17.30
2023-03-10T23:17:56.750Z,16.90
2023-03-10T23:20:27.448Z,16.80
2023-03-10T23:22:57.295Z,16.27
2023-03-10T23:25:29.522Z,16.67
2023-03-10T23:27:58.303Z,15.00
2023-03-10T23:30:26.809Z,16.00
2023-03-10T23:32:57.236Z,15.13
2023-03-10T23:35:28.251Z,14.70
2023-03-10T23:37:56.553Z,15.90
2023-03-10T23:40:27.245Z,15.53
2023-03-10T23:42:55.752Z,15.43
2023-03-10T23:45:25.026Z,14.37
2023-03-10T23:47:55.564Z,15.13
2023-03-10T23:50:27.075Z,14.13
2023-03-10T23:52:55.244Z,13.73
2023-03-10T23:55:26.335Z,14.23
2023-03-10T23:57:54.771Z,14.17
